Burewala Weather



Burewala's Current Weather

Temprature 18.15o overcast clouds

overcast clouds

Rain: 0 %

Min Temprature18.15o
Max Temprature18.15o
Humidity25
Wind Speed2.89 m/h
Sun Rise06:55:46
Sun Set17:09:54
Current Time: 12-Dec-2019 01:31:13
Lat/Lon: 30.16, 72.68




Burewala's Geo Location



Burewala's Weather Forecast

Time Overall Temp Min Temp Max Temp Humidity Wind Speed Rain
12-Dec-2019 (Thu)
02:00:00 overcast clouds 18.150 18.150 18.150 25 2.89 m/h 0 %
05:00:00 light rain 13.140 13.140 13.140 77 5.08 m/h 63 %
08:00:00 moderate rain 12.580 12.580 12.580 91 2.05 m/h 800 %
11:00:00 moderate rain 13.630 13.630 13.630 86 5.13 m/h 419 %
14:00:00 light rain 13.400 13.400 13.400 86 4.37 m/h 144 %
17:00:00 light rain 12.790 12.790 12.790 85 4.16 m/h 175 %
20:00:00 light rain 12.460 12.460 12.460 84 3.26 m/h 19 %
23:00:00 overcast clouds 12.450 12.450 12.450 85 1.86 m/h 0 %
13-Dec-2019 (Fri)
02:00:00 broken clouds 11.200 11.200 11.200 93 2.79 m/h 0 %
05:00:00 scattered clouds 10.340 10.340 10.340 95 2.6 m/h 0 %
08:00:00 clear sky 11.050 11.050 11.050 89 1.56 m/h 0 %
11:00:00 clear sky 15.530 15.530 15.530 61 2.09 m/h 0 %
14:00:00 clear sky 17.840 17.840 17.840 49 1.98 m/h 0 %
17:00:00 clear sky 16.110 16.110 16.110 56 1.1 m/h 0 %
20:00:00 clear sky 14.390 14.390 14.390 62 0.77 m/h 0 %
23:00:00 clear sky 13.420 13.420 13.420 67 1.34 m/h 0 %
14-Dec-2019 (Sat)
02:00:00 clear sky 12.970 12.970 12.970 68 2.26 m/h 0 %
05:00:00 clear sky 12.280 12.280 12.280 71 2.44 m/h 0 %
08:00:00 clear sky 12.830 12.830 12.830 70 2.53 m/h 0 %
11:00:00 clear sky 18.030 18.030 18.030 49 3.08 m/h 0 %
14:00:00 clear sky 19.730 19.730 19.730 41 2.11 m/h 0 %
17:00:00 few clouds 17.780 17.780 17.780 46 1.84 m/h 0 %
20:00:00 broken clouds 15.430 15.430 15.430 54 2.22 m/h 0 %
23:00:00 broken clouds 14.250 14.250 14.250 58 2.13 m/h 0 %
15-Dec-2019 (Sun)
02:00:00 overcast clouds 13.600 13.600 13.600 60 1.52 m/h 0 %
05:00:00 overcast clouds 12.890 12.890 12.890 63 1.72 m/h 0 %
08:00:00 broken clouds 13.400 13.400 13.400 61 1.96 m/h 0 %
11:00:00 scattered clouds 18.550 18.550 18.550 43 2.95 m/h 0 %
14:00:00 clear sky 20.240 20.240 20.240 35 3.18 m/h 0 %
17:00:00 clear sky 17.760 17.760 17.760 42 1.98 m/h 0 %
20:00:00 clear sky 15.620 15.620 15.620 47 1.59 m/h 0 %
23:00:00 clear sky 14.320 14.320 14.320 50 1.03 m/h 0 %
16-Dec-2019 (Mon)
02:00:00 clear sky 13.430 13.430 13.430 52 1.36 m/h 0 %
05:00:00 clear sky 12.080 12.080 12.080 56 2.06 m/h 0 %
08:00:00 clear sky 12.830 12.830 12.830 55 1.49 m/h 0 %
11:00:00 clear sky 18.750 18.750 18.750 37 2.81 m/h 0 %
14:00:00 clear sky 20.630 20.630 20.630 26 3.45 m/h 0 %
17:00:00 clear sky 17.640 17.640 17.640 33 2.61 m/h 0 %
20:00:00 clear sky 15.100 15.100 15.100 38 2.26 m/h 0 %
23:00:00 clear sky 13.670 13.670 13.670 40 1.93 m/h 0 %


Burewala's Tourist Spots

Historical Places in Burewala

Famous Cities (61)